sensor_id;sensor_type;location;lat;lon;timestamp;P1;durP1;ratioP1;P2;durP2;ratioP2
42886;SDS011;29032;56.028;92.904;2023-04-09T00:03:47;4.50;;;1.93;;
42886;SDS011;29032;56.028;92.904;2023-04-09T00:14:09;5.80;;;1.90;;
42886;SDS011;29032;56.028;92.904;2023-04-09T00:19:13;3.70;;;2.10;;
42886;SDS011;29032;56.028;92.904;2023-04-09T00:29:35;7.53;;;2.57;;
42886;SDS011;29032;56.028;92.904;2023-04-09T00:34:38;4.80;;;2.67;;
42886;SDS011;29032;56.028;92.904;2023-04-09T00:39:40;5.63;;;2.30;;
42886;SDS011;29032;56.028;92.904;2023-04-09T00:50:22;9.67;;;2.40;;
42886;SDS011;29032;56.028;92.904;2023-04-09T00:55:43;12.17;;;2.93;;
42886;SDS011;29032;56.028;92.904;2023-04-09T01:00:45;7.80;;;2.67;;
42886;SDS011;29032;56.028;92.904;2023-04-09T01:05:52;10.70;;;3.60;;
42886;SDS011;29032;56.028;92.904;2023-04-09T01:11:10;7.27;;;2.63;;
42886;SDS011;29032;56.028;92.904;2023-04-09T01:16:34;7.23;;;2.40;;
42886;SDS011;29032;56.028;92.904;2023-04-09T01:21:39;6.57;;;2.50;;
42886;SDS011;29032;56.028;92.904;2023-04-09T01:27:04;6.03;;;2.40;;
42886;SDS011;29032;56.028;92.904;2023-04-09T01:32:32;4.07;;;2.40;;
42886;SDS011;29032;56.028;92.904;2023-04-09T01:37:37;4.72;;;2.35;;
42886;SDS011;29032;56.028;92.904;2023-04-09T01:42:40;4.03;;;2.20;;
42886;SDS011;29032;56.028;92.904;2023-04-09T01:53:23;7.30;;;2.10;;
42886;SDS011;29032;56.028;92.904;2023-04-09T02:09:10;3.77;;;2.10;;
42886;SDS011;29032;56.028;92.904;2023-04-09T02:14:14;4.30;;;2.40;;
42886;SDS011;29032;56.028;92.904;2023-04-09T02:19:18;5.10;;;1.87;;
42886;SDS011;29032;56.028;92.904;2023-04-09T02:24:20;4.50;;;1.53;;
42886;SDS011;29032;56.028;92.904;2023-04-09T02:29:22;4.97;;;2.20;;
42886;SDS011;29032;56.028;92.904;2023-04-09T02:34:25;4.27;;;1.90;;
42886;SDS011;29032;56.028;92.904;2023-04-09T02:39:28;3.17;;;1.90;;
42886;SDS011;29032;56.028;92.904;2023-04-09T02:49:51;5.40;;;2.00;;
42886;SDS011;29032;56.028;92.904;2023-04-09T02:54:53;4.57;;;1.73;;
42886;SDS011;29032;56.028;92.904;2023-04-09T02:59:55;2.27;;;1.97;;
42886;SDS011;29032;56.028;92.904;2023-04-09T03:04:59;7.73;;;2.00;;
42886;SDS011;29032;56.028;92.904;2023-04-09T03:10:01;2.50;;;2.00;;
42886;SDS011;29032;56.028;92.904;2023-04-09T03:15:04;3.13;;;1.90;;
42886;SDS011;29032;56.028;92.904;2023-04-09T03:20:08;4.53;;;2.60;;
42886;SDS011;29032;56.028;92.904;2023-04-09T03:25:13;4.27;;;1.80;;
42886;SDS011;29032;56.028;92.904;2023-04-09T03:30:15;6.33;;;1.70;;
42886;SDS011;29032;56.028;92.904;2023-04-09T03:35:21;4.43;;;2.13;;
42886;SDS011;29032;56.028;92.904;2023-04-09T03:40:26;3.10;;;2.40;;
42886;SDS011;29032;56.028;92.904;2023-04-09T03:45:28;5.13;;;2.10;;
42886;SDS011;29032;56.028;92.904;2023-04-09T03:50:39;5.70;;;2.00;;
42886;SDS011;29032;56.028;92.904;2023-04-09T03:56:07;3.23;;;2.00;;
42886;SDS011;29032;56.028;92.904;2023-04-09T04:01:11;9.40;;;2.60;;
42886;SDS011;29032;56.028;92.904;2023-04-09T04:06:28;7.07;;;2.00;;
42886;SDS011;29032;56.028;92.904;2023-04-09T04:12:09;7.80;;;2.40;;
42886;SDS011;29032;56.028;92.904;2023-04-09T04:17:28;6.07;;;2.70;;
42886;SDS011;29032;56.028;92.904;2023-04-09T04:22:50;5.47;;;2.53;;
42886;SDS011;29032;56.028;92.904;2023-04-09T04:27:52;5.03;;;2.37;;
42886;SDS011;29032;56.028;92.904;2023-04-09T04:32:58;3.30;;;2.00;;
42886;SDS011;29032;56.028;92.904;2023-04-09T04:38:04;5.23;;;2.80;;
42886;SDS011;29032;56.028;92.904;2023-04-09T04:43:25;5.40;;;2.40;;
42886;SDS011;29032;56.028;92.904;2023-04-09T04:48:31;7.80;;;2.70;;
42886;SDS011;29032;56.028;92.904;2023-04-09T04:53:35;5.00;;;2.47;;
42886;SDS011;29032;56.028;92.904;2023-04-09T05:04:16;4.97;;;2.00;;
42886;SDS011;29032;56.028;92.904;2023-04-09T05:09:38;3.97;;;2.27;;
42886;SDS011;29032;56.028;92.904;2023-04-09T05:14:42;5.53;;;2.37;;
42886;SDS011;29032;56.028;92.904;2023-04-09T05:25:25;6.57;;;2.63;;
42886;SDS011;29032;56.028;92.904;2023-04-09T05:30:28;4.27;;;1.90;;
42886;SDS011;29032;56.028;92.904;2023-04-09T05:40:55;4.03;;;2.03;;
42886;SDS011;29032;56.028;92.904;2023-04-09T05:45:57;10.03;;;1.97;;
42886;SDS011;29032;56.028;92.904;2023-04-09T05:56:22;7.97;;;2.67;;
42886;SDS011;29032;56.028;92.904;2023-04-09T06:01:27;9.80;;;2.30;;
42886;SDS011;29032;56.028;92.904;2023-04-09T06:11:51;3.33;;;1.90;;
42886;SDS011;29032;56.028;92.904;2023-04-09T06:17:12;3.37;;;1.90;;
42886;SDS011;29032;56.028;92.904;2023-04-09T06:22:32;6.70;;;2.50;;
42886;SDS011;29032;56.028;92.904;2023-04-09T06:27:35;8.30;;;2.30;;
42886;SDS011;29032;56.028;92.904;2023-04-09T06:37:58;6.17;;;2.73;;
42886;SDS011;29032;56.028;92.904;2023-04-09T06:43:01;8.53;;;2.30;;
42886;SDS011;29032;56.028;92.904;2023-04-09T06:48:11;6.03;;;2.30;;
42886;SDS011;29032;56.028;92.904;2023-04-09T06:53:13;3.17;;;1.70;;
42886;SDS011;29032;56.028;92.904;2023-04-09T06:58:35;6.03;;;1.90;;
42886;SDS011;29032;56.028;92.904;2023-04-09T07:03:37;3.93;;;2.10;;
42886;SDS011;29032;56.028;92.904;2023-04-09T07:08:58;6.10;;;2.33;;
42886;SDS011;29032;56.028;92.904;2023-04-09T07:14:01;3.80;;;1.70;;
42886;SDS011;29032;56.028;92.904;2023-04-09T07:19:03;3.97;;;1.63;;
42886;SDS011;29032;56.028;92.904;2023-04-09T07:24:05;7.43;;;2.60;;
42886;SDS011;29032;56.028;92.904;2023-04-09T07:29:09;6.23;;;2.80;;
42886;SDS011;29032;56.028;92.904;2023-04-09T07:34:29;12.43;;;4.77;;
42886;SDS011;29032;56.028;92.904;2023-04-09T07:39:49;8.23;;;3.93;;
42886;SDS011;29032;56.028;92.904;2023-04-09T07:44:53;10.87;;;4.00;;
42886;SDS011;29032;56.028;92.904;2023-04-09T07:49:55;13.13;;;4.10;;
42886;SDS011;29032;56.028;92.904;2023-04-09T07:55:07;7.17;;;3.30;;
42886;SDS011;29032;56.028;92.904;2023-04-09T08:05:31;3.40;;;1.97;;
42886;SDS011;29032;56.028;92.904;2023-04-09T08:10:33;6.13;;;2.67;;
42886;SDS011;29032;56.028;92.904;2023-04-09T08:15:37;2.97;;;2.13;;
42886;SDS011;29032;56.028;92.904;2023-04-09T08:20:57;6.33;;;2.60;;
42886;SDS011;29032;56.028;92.904;2023-04-09T08:25:59;5.53;;;2.80;;
42886;SDS011;29032;56.028;92.904;2023-04-09T08:31:21;3.97;;;2.40;;
42886;SDS011;29032;56.028;92.904;2023-04-09T08:36:23;3.90;;;2.33;;
42886;SDS011;29032;56.028;92.904;2023-04-09T08:41:25;7.10;;;2.93;;
42886;SDS011;29032;56.028;92.904;2023-04-09T08:46:30;8.90;;;2.97;;
42886;SDS011;29032;56.028;92.904;2023-04-09T08:51:32;6.33;;;2.83;;
42886;SDS011;29032;56.028;92.904;2023-04-09T09:02:07;2.33;;;1.40;;
42886;SDS011;29032;56.028;92.904;2023-04-09T09:07:27;4.27;;;2.30;;
42886;SDS011;29032;56.028;92.904;2023-04-09T09:12:30;17.03;;;2.63;;
42886;SDS011;29032;56.028;92.904;2023-04-09T09:17:44;11.65;;;2.75;;
42886;SDS011;29032;56.028;92.904;2023-04-09T09:22:57;5.23;;;2.70;;
42886;SDS011;29032;56.028;92.904;2023-04-09T09:28:36;2.50;;;1.23;;
42886;SDS011;29032;56.028;92.904;2023-04-09T09:33:39;6.03;;;2.90;;
42886;SDS011;29032;56.028;92.904;2023-04-09T09:38:51;7.90;;;2.20;;
42886;SDS011;29032;56.028;92.904;2023-04-09T09:43:54;9.27;;;2.80;;
42886;SDS011;29032;56.028;92.904;2023-04-09T09:48:58;3.83;;;2.03;;
42886;SDS011;29032;56.028;92.904;2023-04-09T09:54:18;4.70;;;1.50;;
42886;SDS011;29032;56.028;92.904;2023-04-09T09:59:24;5.70;;;1.80;;
42886;SDS011;29032;56.028;92.904;2023-04-09T10:04:33;3.83;;;1.27;;
42886;SDS011;29032;56.028;92.904;2023-04-09T10:09:36;4.07;;;1.30;;
42886;SDS011;29032;56.028;92.904;2023-04-09T10:14:41;7.37;;;2.60;;
42886;SDS011;29032;56.028;92.904;2023-04-09T10:19:46;7.73;;;2.33;;
42886;SDS011;29032;56.028;92.904;2023-04-09T10:24:57;3.03;;;1.60;;
42886;SDS011;29032;56.028;92.904;2023-04-09T10:29:59;4.30;;;1.73;;
42886;SDS011;29032;56.028;92.904;2023-04-09T10:35:04;5.20;;;2.50;;
42886;SDS011;29032;56.028;92.904;2023-04-09T10:40:07;8.17;;;2.60;;
42886;SDS011;29032;56.028;92.904;2023-04-09T10:45:19;9.53;;;2.90;;
42886;SDS011;29032;56.028;92.904;2023-04-09T10:55:47;8.63;;;2.67;;
42886;SDS011;29032;56.028;92.904;2023-04-09T11:00:50;7.50;;;3.50;;
42886;SDS011;29032;56.028;92.904;2023-04-09T11:05:58;6.63;;;1.83;;
42886;SDS011;29032;56.028;92.904;2023-04-09T11:11:01;5.53;;;2.50;;
42886;SDS011;29032;56.028;92.904;2023-04-09T11:16:04;7.40;;;1.77;;
42886;SDS011;29032;56.028;92.904;2023-04-09T11:21:08;8.03;;;3.20;;
42886;SDS011;29032;56.028;92.904;2023-04-09T11:26:33;9.57;;;3.37;;
42886;SDS011;29032;56.028;92.904;2023-04-09T11:36:58;4.87;;;1.63;;
42886;SDS011;29032;56.028;92.904;2023-04-09T11:42:19;7.37;;;2.07;;
42886;SDS011;29032;56.028;92.904;2023-04-09T11:47:21;4.97;;;1.87;;
42886;SDS011;29032;56.028;92.904;2023-04-09T11:52:25;8.90;;;2.10;;
42886;SDS011;29032;56.028;92.904;2023-04-09T11:57:35;8.70;;;3.43;;
42886;SDS011;29032;56.028;92.904;2023-04-09T12:02:41;15.23;;;5.00;;
42886;SDS011;29032;56.028;92.904;2023-04-09T12:08:22;11.73;;;4.90;;
42886;SDS011;29032;56.028;92.904;2023-04-09T12:13:44;17.50;;;7.20;;
42886;SDS011;29032;56.028;92.904;2023-04-09T12:18:46;10.10;;;4.30;;
42886;SDS011;29032;56.028;92.904;2023-04-09T12:23:51;8.77;;;3.53;;
42886;SDS011;29032;56.028;92.904;2023-04-09T12:29:12;8.97;;;3.00;;
42886;SDS011;29032;56.028;92.904;2023-04-09T12:34:34;7.57;;;2.73;;
42886;SDS011;29032;56.028;92.904;2023-04-09T12:44:57;12.13;;;3.73;;
42886;SDS011;29032;56.028;92.904;2023-04-09T12:49:59;14.67;;;4.43;;
42886;SDS011;29032;56.028;92.904;2023-04-09T12:55:06;6.17;;;3.33;;
42886;SDS011;29032;56.028;92.904;2023-04-09T13:00:09;7.13;;;2.50;;
42886;SDS011;29032;56.028;92.904;2023-04-09T13:05:12;10.07;;;3.53;;
42886;SDS011;29032;56.028;92.904;2023-04-09T13:10:16;10.50;;;4.60;;
42886;SDS011;29032;56.028;92.904;2023-04-09T13:15:38;8.80;;;3.23;;
42886;SDS011;29032;56.028;92.904;2023-04-09T13:21:00;8.67;;;3.90;;
42886;SDS011;29032;56.028;92.904;2023-04-09T13:26:06;15.57;;;5.97;;
42886;SDS011;29032;56.028;92.904;2023-04-09T13:31:08;14.50;;;6.73;;
42886;SDS011;29032;56.028;92.904;2023-04-09T13:36:10;12.43;;;6.23;;
42886;SDS011;29032;56.028;92.904;2023-04-09T13:41:14;15.17;;;5.97;;
42886;SDS011;29032;56.028;92.904;2023-04-09T13:52:13;10.55;;;3.67;;
42886;SDS011;29032;56.028;92.904;2023-04-09T13:57:35;15.50;;;7.50;;
42886;SDS011;29032;56.028;92.904;2023-04-09T14:02:37;18.33;;;6.90;;
42886;SDS011;29032;56.028;92.904;2023-04-09T14:07:39;19.07;;;7.70;;
42886;SDS011;29032;56.028;92.904;2023-04-09T14:12:42;18.57;;;7.90;;
42886;SDS011;29032;56.028;92.904;2023-04-09T14:17:44;19.87;;;7.17;;
42886;SDS011;29032;56.028;92.904;2023-04-09T14:22:46;23.77;;;8.07;;
42886;SDS011;29032;56.028;92.904;2023-04-09T14:27:50;20.87;;;7.83;;
42886;SDS011;29032;56.028;92.904;2023-04-09T14:32:52;20.87;;;6.60;;
42886;SDS011;29032;56.028;92.904;2023-04-09T14:37:54;14.20;;;6.00;;
42886;SDS011;29032;56.028;92.904;2023-04-09T14:43:16;13.43;;;6.17;;
42886;SDS011;29032;56.028;92.904;2023-04-09T14:48:18;16.80;;;6.63;;
42886;SDS011;29032;56.028;92.904;2023-04-09T14:53:20;14.97;;;6.90;;
42886;SDS011;29032;56.028;92.904;2023-04-09T14:58:42;15.50;;;6.77;;
42886;SDS011;29032;56.028;92.904;2023-04-09T15:09:04;14.87;;;5.97;;
42886;SDS011;29032;56.028;92.904;2023-04-09T15:14:08;11.93;;;5.53;;
42886;SDS011;29032;56.028;92.904;2023-04-09T15:19:10;10.07;;;5.40;;
42886;SDS011;29032;56.028;92.904;2023-04-09T15:24:30;18.53;;;5.67;;
42886;SDS011;29032;56.028;92.904;2023-04-09T15:29:35;14.67;;;6.00;;
42886;SDS011;29032;56.028;92.904;2023-04-09T15:34:55;16.57;;;6.90;;
42886;SDS011;29032;56.028;92.904;2023-04-09T15:45:20;13.13;;;5.23;;
42886;SDS011;29032;56.028;92.904;2023-04-09T15:50:22;9.60;;;5.73;;
42886;SDS011;29032;56.028;92.904;2023-04-09T15:55:24;10.73;;;4.70;;
42886;SDS011;29032;56.028;92.904;2023-04-09T16:00:27;11.70;;;4.70;;
42886;SDS011;29032;56.028;92.904;2023-04-09T16:05:48;15.03;;;5.37;;
42886;SDS011;29032;56.028;92.904;2023-04-09T16:11:08;13.47;;;6.23;;
42886;SDS011;29032;56.028;92.904;2023-04-09T16:16:12;11.20;;;4.63;;
42886;SDS011;29032;56.028;92.904;2023-04-09T16:21:14;10.80;;;4.83;;
42886;SDS011;29032;56.028;92.904;2023-04-09T16:26:34;11.33;;;4.60;;
42886;SDS011;29032;56.028;92.904;2023-04-09T16:31:38;16.53;;;6.23;;
42886;SDS011;29032;56.028;92.904;2023-04-09T16:36:40;17.57;;;6.10;;
42886;SDS011;29032;56.028;92.904;2023-04-09T16:41:42;14.63;;;6.63;;
42886;SDS011;29032;56.028;92.904;2023-04-09T16:46:48;13.17;;;5.27;;
42886;SDS011;29032;56.028;92.904;2023-04-09T16:51:50;10.00;;;4.60;;
42886;SDS011;29032;56.028;92.904;2023-04-09T16:57:11;10.07;;;4.10;;
42886;SDS011;29032;56.028;92.904;2023-04-09T17:02:14;8.00;;;3.47;;
42886;SDS011;29032;56.028;92.904;2023-04-09T17:07:17;7.13;;;3.60;;
42886;SDS011;29032;56.028;92.904;2023-04-09T17:12:19;8.90;;;3.37;;
42886;SDS011;29032;56.028;92.904;2023-04-09T17:22:43;7.93;;;3.80;;
42886;SDS011;29032;56.028;92.904;2023-04-09T17:27:45;6.03;;;2.70;;
42886;SDS011;29032;56.028;92.904;2023-04-09T17:32:49;5.50;;;2.60;;
42886;SDS011;29032;56.028;92.904;2023-04-09T17:37:51;6.10;;;3.03;;
42886;SDS011;29032;56.028;92.904;2023-04-09T17:43:12;4.87;;;2.20;;
42886;SDS011;29032;56.028;92.904;2023-04-09T17:48:15;6.10;;;2.37;;
42886;SDS011;29032;56.028;92.904;2023-04-09T17:53:17;6.93;;;3.00;;
42886;SDS011;29032;56.028;92.904;2023-04-09T17:58:19;7.30;;;3.00;;
42886;SDS011;29032;56.028;92.904;2023-04-09T18:03:23;7.17;;;3.60;;
42886;SDS011;29032;56.028;92.904;2023-04-09T18:08:25;7.87;;;3.23;;
42886;SDS011;29032;56.028;92.904;2023-04-09T18:13:27;7.37;;;3.83;;
42886;SDS011;29032;56.028;92.904;2023-04-09T18:24:10;6.33;;;2.50;;
42886;SDS011;29032;56.028;92.904;2023-04-09T18:29:12;5.27;;;2.33;;
42886;SDS011;29032;56.028;92.904;2023-04-09T18:34:35;3.30;;;2.10;;
42886;SDS011;29032;56.028;92.904;2023-04-09T18:45:15;8.52;;;3.03;;
42886;SDS011;29032;56.028;92.904;2023-04-09T18:50:19;6.03;;;2.70;;
42886;SDS011;29032;56.028;92.904;2023-04-09T19:00:41;5.03;;;2.70;;
42886;SDS011;29032;56.028;92.904;2023-04-09T19:05:44;5.63;;;2.80;;
42886;SDS011;29032;56.028;92.904;2023-04-09T19:10:46;6.80;;;2.77;;
42886;SDS011;29032;56.028;92.904;2023-04-09T19:15:48;8.70;;;3.03;;
42886;SDS011;29032;56.028;92.904;2023-04-09T19:20:52;4.07;;;2.43;;
42886;SDS011;29032;56.028;92.904;2023-04-09T19:25:54;4.53;;;2.27;;
42886;SDS011;29032;56.028;92.904;2023-04-09T19:30:56;4.90;;;2.53;;
42886;SDS011;29032;56.028;92.904;2023-04-09T19:36:00;4.87;;;1.60;;
42886;SDS011;29032;56.028;92.904;2023-04-09T19:41:02;4.37;;;2.13;;
42886;SDS011;29032;56.028;92.904;2023-04-09T19:46:04;4.47;;;2.53;;
42886;SDS011;29032;56.028;92.904;2023-04-09T19:51:13;5.00;;;2.30;;
42886;SDS011;29032;56.028;92.904;2023-04-09T19:56:16;4.27;;;2.40;;
42886;SDS011;29032;56.028;92.904;2023-04-09T20:01:19;4.97;;;2.53;;
42886;SDS011;29032;56.028;92.904;2023-04-09T20:11:42;6.53;;;2.33;;
42886;SDS011;29032;56.028;92.904;2023-04-09T20:16:44;9.80;;;3.70;;
42886;SDS011;29032;56.028;92.904;2023-04-09T20:21:48;6.63;;;2.90;;
42886;SDS011;29032;56.028;92.904;2023-04-09T20:32:10;6.70;;;2.50;;
42886;SDS011;29032;56.028;92.904;2023-04-09T20:42:34;3.83;;;1.83;;
42886;SDS011;29032;56.028;92.904;2023-04-09T20:47:36;6.53;;;2.27;;
42886;SDS011;29032;56.028;92.904;2023-04-09T20:57:59;5.00;;;2.40;;
42886;SDS011;29032;56.028;92.904;2023-04-09T21:03:01;3.27;;;1.70;;
42886;SDS011;29032;56.028;92.904;2023-04-09T21:08:05;3.53;;;1.87;;
42886;SDS011;29032;56.028;92.904;2023-04-09T21:13:07;4.93;;;1.70;;
42886;SDS011;29032;56.028;92.904;2023-04-09T21:18:09;2.37;;;1.53;;
42886;SDS011;29032;56.028;92.904;2023-04-09T21:23:13;4.33;;;1.97;;
42886;SDS011;29032;56.028;92.904;2023-04-09T21:28:15;3.00;;;1.70;;
42886;SDS011;29032;56.028;92.904;2023-04-09T21:33:17;5.90;;;1.97;;
42886;SDS011;29032;56.028;92.904;2023-04-09T21:38:21;4.07;;;2.30;;
42886;SDS011;29032;56.028;92.904;2023-04-09T21:43:23;5.03;;;2.00;;
42886;SDS011;29032;56.028;92.904;2023-04-09T21:53:47;2.03;;;1.30;;
42886;SDS011;29032;56.028;92.904;2023-04-09T21:58:50;3.70;;;1.50;;
42886;SDS011;29032;56.028;92.904;2023-04-09T22:03:51;3.70;;;1.47;;
42886;SDS011;29032;56.028;92.904;2023-04-09T22:08:55;3.10;;;1.40;;
42886;SDS011;29032;56.028;92.904;2023-04-09T22:13:57;1.80;;;1.13;;
42886;SDS011;29032;56.028;92.904;2023-04-09T22:19:18;4.30;;;1.30;;
42886;SDS011;29032;56.028;92.904;2023-04-09T22:24:21;3.07;;;1.60;;
42886;SDS011;29032;56.028;92.904;2023-04-09T22:29:23;2.87;;;1.80;;
42886;SDS011;29032;56.028;92.904;2023-04-09T22:34:25;5.20;;;1.40;;
42886;SDS011;29032;56.028;92.904;2023-04-09T22:39:29;5.07;;;1.67;;
42886;SDS011;29032;56.028;92.904;2023-04-09T22:44:50;2.17;;;1.63;;
42886;SDS011;29032;56.028;92.904;2023-04-09T22:49:52;2.00;;;1.50;;
42886;SDS011;29032;56.028;92.904;2023-04-09T22:54:56;2.37;;;1.77;;
42886;SDS011;29032;56.028;92.904;2023-04-09T22:59:58;3.73;;;1.90;;
42886;SDS011;29032;56.028;92.904;2023-04-09T23:05:00;3.90;;;2.03;;
42886;SDS011;29032;56.028;92.904;2023-04-09T23:10:05;3.80;;;2.40;;
42886;SDS011;29032;56.028;92.904;2023-04-09T23:15:08;3.27;;;1.57;;
42886;SDS011;29032;56.028;92.904;2023-04-09T23:20:13;5.40;;;2.50;;
42886;SDS011;29032;56.028;92.904;2023-04-09T23:25:18;7.20;;;2.40;;
42886;SDS011;29032;56.028;92.904;2023-04-09T23:30:21;5.13;;;2.87;;
42886;SDS011;29032;56.028;92.904;2023-04-09T23:35:41;4.63;;;2.23;;
42886;SDS011;29032;56.028;92.904;2023-04-09T23:40:44;4.20;;;1.70;;
42886;SDS011;29032;56.028;92.904;2023-04-09T23:45:48;3.57;;;1.70;;
42886;SDS011;29032;56.028;92.904;2023-04-09T23:51:08;3.33;;;1.53;;
42886;SDS011;29032;56.028;92.904;2023-04-09T23:56:18;4.17;;;1.37;;
